Time;durP1;ratioP1;P1;durP2;ratioP2;P2;SDS_P1;SDS_P2;PMS_P1;PMS_P2;Temp;Humidity;BMP_temperature;BMP_pressure;BME280_temperature;BME280_humidity;BME280_pressure;Samples;Min_cycle;Max_cycle;Signal;HPM_P1;HPM_P2
2023/05/13 00:01:12;;;;;;;3.70;2.10;;;12.70;99.90;;;;;;5073584;28;20205;-64
2023/05/13 00:03:39;;;;;;;2.97;2.40;;;12.70;99.90;;;;;;5073275;28;20209;-65
2023/05/13 00:06:05;;;;;;;2.80;2.50;;;12.60;99.90;;;;;;5073240;28;20216;-67
2023/05/13 00:08:32;;;;;;;4.47;2.50;;;12.50;99.90;;;;;;5072978;28;20287;-67
2023/05/13 00:10:59;;;;;;;2.90;2.13;;;12.40;99.90;;;;;;5073219;28;20672;-67
2023/05/13 00:13:27;;;;;;;3.17;2.40;;;12.40;99.90;;;;;;5073113;28;20205;-67
2023/05/13 00:15:54;;;;;;;3.47;2.50;;;12.30;99.90;;;;;;5072773;28;20213;-67
2023/05/13 00:18:20;;;;;;;2.63;2.10;;;12.30;99.90;;;;;;5073068;28;20609;-67
2023/05/13 00:20:47;;;;;;;4.23;2.40;;;12.30;99.90;;;;;;5073141;28;20231;-67
2023/05/13 00:23:14;;;;;;;3.63;2.40;;;12.40;99.90;;;;;;5072898;28;20558;-67
2023/05/13 00:25:42;;;;;;;2.63;2.30;;;12.50;99.90;;;;;;5072837;28;20244;-67
2023/05/13 00:28:09;;;;;;;4.03;2.30;;;12.50;99.90;;;;;;5072846;28;20201;-67
2023/05/13 00:30:38;;;;;;;4.93;2.87;;;12.60;99.90;;;;;;5072654;28;20232;-67
2023/05/13 00:33:06;;;;;;;6.37;2.87;;;12.70;99.90;;;;;;5072980;28;20215;-67
2023/05/13 00:35:32;;;;;;;2.60;2.40;;;12.80;99.90;;;;;;5072594;28;20221;-65
2023/05/13 00:37:59;;;;;;;4.43;2.50;;;12.90;99.90;;;;;;5072649;28;20212;-67
2023/05/13 00:40:26;;;;;;;3.03;2.17;;;12.80;99.90;;;;;;5072689;28;20224;-67
2023/05/13 00:42:54;;;;;;;3.90;2.33;;;12.70;99.90;;;;;;5072538;28;20216;-67
2023/05/13 00:45:21;;;;;;;2.70;2.07;;;12.60;99.90;;;;;;5072474;28;20196;-65
2023/05/13 00:47:49;;;;;;;3.33;2.10;;;12.50;99.90;;;;;;5072473;28;20225;-66
2023/05/13 00:50:16;;;;;;;3.47;2.50;;;12.30;99.90;;;;;;5072340;28;20243;-67
2023/05/13 00:52:43;;;;;;;2.70;2.40;;;12.20;99.90;;;;;;5072441;28;20739;-67
2023/05/13 00:55:10;;;;;;;3.17;2.20;;;12.10;99.90;;;;;;5072828;28;20217;-67
2023/05/13 00:57:38;;;;;;;3.13;2.20;;;11.90;99.90;;;;;;5072297;28;20208;-67
2023/05/13 01:00:06;;;;;;;2.30;2.10;;;11.80;99.90;;;;;;5072230;28;20229;-67
2023/05/13 01:02:39;;;;;;;2.50;2.03;;;11.70;99.90;;;;;;5072521;28;20201;-67
2023/05/13 01:05:16;;;;;;;2.90;2.30;;;11.60;99.90;;;;;;5072443;28;20228;-67
2023/05/13 01:07:50;;;;;;;2.50;2.30;;;11.50;99.90;;;;;;5072625;28;20211;-66
2023/05/13 01:10:27;;;;;;;6.17;2.70;;;11.40;99.90;;;;;;5072193;28;20232;-67
2023/05/13 01:12:59;;;;;;;3.77;2.00;;;11.40;99.90;;;;;;5072300;28;20696;-67
2023/05/13 01:15:27;;;;;;;2.93;2.43;;;11.30;99.90;;;;;;5072204;28;20232;-67
2023/05/13 01:18:00;;;;;;;13.37;11.43;;;11.30;99.90;;;;;;5072035;28;20208;-67
2023/05/13 01:20:30;;;;;;;3.77;2.27;;;11.20;99.90;;;;;;5071516;28;20252;-66
2023/05/13 01:22:58;;;;;;;6.13;3.57;;;11.20;99.90;;;;;;5072178;28;20223;-66
2023/05/13 01:25:25;;;;;;;3.00;2.40;;;11.20;99.90;;;;;;5071882;28;20197;-66
2023/05/13 01:27:52;;;;;;;3.53;2.40;;;11.10;99.90;;;;;;5071886;28;20303;-67
2023/05/13 01:30:20;;;;;;;4.23;2.43;;;11.10;99.90;;;;;;5071900;28;20233;-66
2023/05/13 01:32:47;;;;;;;3.53;2.23;;;11.00;99.90;;;;;;5071882;28;20677;-67
2023/05/13 01:35:15;;;;;;;3.97;2.77;;;10.90;99.90;;;;;;5071521;28;20244;-66
2023/05/13 01:37:43;;;;;;;3.43;2.70;;;10.80;99.90;;;;;;5071928;28;20213;-67
2023/05/13 01:40:12;;;;;;;3.00;2.60;;;10.80;99.90;;;;;;5071843;28;20229;-67
2023/05/13 01:42:39;;;;;;;4.10;2.83;;;10.80;99.90;;;;;;5071808;28;20216;-67
2023/05/13 01:45:07;;;;;;;4.13;2.67;;;10.90;99.90;;;;;;5071773;28;20212;-67
2023/05/13 01:47:34;;;;;;;5.60;2.50;;;10.90;99.90;;;;;;5071663;28;20208;-66
2023/05/13 01:50:01;;;;;;;4.80;2.27;;;11.00;99.90;;;;;;5107103;22;20223;-62
2023/05/13 01:52:28;;;;;;;5.37;2.50;;;11.00;99.90;;;;;;5096316;28;20196;-62
2023/05/13 01:54:55;;;;;;;2.57;2.37;;;11.10;99.90;;;;;;5095754;28;20315;-62
2023/05/13 01:57:24;;;;;;;3.17;2.40;;;11.20;99.90;;;;;;5095870;28;20214;-61
2023/05/13 01:59:51;;;;;;;3.20;2.20;;;11.30;99.90;;;;;;5096624;28;20303;-62
2023/05/13 02:02:18;;;;;;;3.03;1.90;;;11.40;99.90;;;;;;5096567;28;20551;-62
2023/05/13 02:04:45;;;;;;;3.03;2.60;;;11.50;99.90;;;;;;5096406;28;20356;-62
2023/05/13 02:07:12;;;;;;;2.30;2.10;;;11.60;99.90;;;;;;5095881;28;20212;-61
2023/05/13 02:09:39;;;;;;;3.60;2.27;;;11.70;99.90;;;;;;5095920;28;20636;-62
2023/05/13 02:12:07;;;;;;;2.50;1.97;;;11.80;99.90;;;;;;5096339;28;20211;-62
2023/05/13 02:14:37;;;;;;;2.87;1.90;;;11.90;99.90;;;;;;5096261;28;20247;-62
2023/05/13 02:17:04;;;;;;;2.30;2.10;;;11.90;99.90;;;;;;5096317;28;20208;-63
2023/05/13 02:19:31;;;;;;;2.83;2.30;;;12.10;99.90;;;;;;5096499;28;20707;-62
2023/05/13 02:21:58;;;;;;;2.37;2.17;;;12.10;99.90;;;;;;5097042;28;20295;-61
2023/05/13 02:24:25;;;;;;;3.07;2.00;;;12.00;99.90;;;;;;5096704;28;20699;-62
2023/05/13 02:26:53;;;;;;;2.20;2.00;;;12.00;99.90;;;;;;5096228;28;20696;-62
2023/05/13 02:29:20;;;;;;;3.03;2.00;;;11.90;99.90;;;;;;5096048;28;20228;-62
2023/05/13 02:31:48;;;;;;;2.30;2.10;;;11.80;99.90;;;;;;5098676;28;20204;-62
2023/05/13 02:34:15;;;;;;;6.43;2.10;;;11.80;99.90;;;;;;5100601;28;20208;-62
2023/05/13 02:36:42;;;;;;;1.90;1.80;;;11.80;99.90;;;;;;5100239;28;20208;-61
2023/05/13 02:39:09;;;;;;;2.20;2.00;;;11.80;99.90;;;;;;5100090;28;20200;-62
2023/05/13 02:41:36;;;;;;;2.30;2.10;;;11.90;99.90;;;;;;5101063;28;20240;-62
2023/05/13 02:44:03;;;;;;;2.53;1.87;;;11.90;99.90;;;;;;5100313;28;20208;-62
2023/05/13 02:46:29;;;;;;;3.63;2.00;;;12.00;99.90;;;;;;5100225;28;20250;-62
2023/05/13 02:48:58;;;;;;;2.50;1.87;;;12.00;99.90;;;;;;5100249;28;20216;-62
2023/05/13 02:51:25;;;;;;;2.17;1.90;;;12.00;99.90;;;;;;5100703;28;20221;-62
2023/05/13 02:53:52;;;;;;;3.37;2.03;;;11.90;99.90;;;;;;5100348;28;20208;-62
2023/05/13 02:56:19;;;;;;;3.57;2.13;;;12.00;99.90;;;;;;5099245;28;20224;-62
2023/05/13 02:58:46;;;;;;;2.00;1.90;;;12.10;99.90;;;;;;5100611;28;20246;-61
2023/05/13 03:01:13;;;;;;;1.83;1.63;;;12.00;99.90;;;;;;5100419;28;20224;-61
2023/05/13 03:03:40;;;;;;;3.53;2.10;;;12.00;99.90;;;;;;5101001;28;20208;-62
2023/05/13 03:06:08;;;;;;;2.20;2.00;;;12.00;99.90;;;;;;5099805;28;20287;-62
2023/05/13 03:08:35;;;;;;;4.37;2.40;;;12.00;99.90;;;;;;5099860;28;20204;-62
2023/05/13 03:11:02;;;;;;;3.30;2.40;;;12.00;99.90;;;;;;5099873;28;20273;-62
2023/05/13 03:13:29;;;;;;;3.13;2.23;;;12.10;99.90;;;;;;5100612;28;20206;-61
2023/05/13 03:15:56;;;;;;;7.30;2.50;;;12.10;99.90;;;;;;5100469;28;20223;-62
2023/05/13 03:18:23;;;;;;;2.93;2.27;;;12.10;99.90;;;;;;5100909;28;20292;-62
2023/05/13 03:20:50;;;;;;;2.27;2.07;;;12.00;99.90;;;;;;5100934;28;20224;-62
2023/05/13 03:23:18;;;;;;;3.10;2.07;;;12.00;99.90;;;;;;5100263;28;20664;-62
2023/05/13 03:25:45;;;;;;;3.40;2.20;;;11.90;99.90;;;;;;5099873;28;20580;-62
2023/05/13 03:28:12;;;;;;;2.27;2.07;;;12.00;99.90;;;;;;5100702;28;20236;-62
2023/05/13 03:30:39;;;;;;;2.80;1.93;;;12.00;99.90;;;;;;5100629;28;20230;-62
2023/05/13 03:33:06;;;;;;;6.10;2.30;;;12.00;99.90;;;;;;5101721;28;20212;-62
2023/05/13 03:35:33;;;;;;;2.83;2.20;;;12.00;99.90;;;;;;5100692;28;20288;-62
2023/05/13 03:38:00;;;;;;;4.50;2.50;;;12.10;99.90;;;;;;5100875;28;20506;-62
2023/05/13 03:40:28;;;;;;;2.70;2.20;;;12.10;99.90;;;;;;5101144;28;20263;-62
2023/05/13 03:42:55;;;;;;;3.80;2.23;;;12.20;99.90;;;;;;5100092;28;20200;-63
2023/05/13 03:45:22;;;;;;;3.27;2.30;;;12.20;99.90;;;;;;5100048;28;20671;-62
2023/05/13 03:47:50;;;;;;;2.63;1.90;;;12.30;99.90;;;;;;5100024;28;20257;-62
2023/05/13 03:50:17;;;;;;;2.27;1.90;;;12.30;99.90;;;;;;5099988;28;20285;-62
2023/05/13 03:52:44;;;;;;;2.70;2.20;;;12.30;99.90;;;;;;5099991;28;20200;-62
2023/05/13 03:55:13;;;;;;;2.27;2.07;;;12.30;99.90;;;;;;5100860;28;20263;-63
2023/05/13 03:57:42;;;;;;;4.63;2.23;;;12.40;99.90;;;;;;5100556;28;20663;-62
2023/05/13 04:00:10;;;;;;;5.97;2.10;;;12.30;99.90;;;;;;5100665;28;20703;-62
2023/05/13 04:02:37;;;;;;;3.33;2.00;;;12.40;99.90;;;;;;5100256;28;20200;-62
2023/05/13 04:05:04;;;;;;;3.20;2.30;;;12.40;99.90;;;;;;5099628;28;20212;-62
2023/05/13 04:07:32;;;;;;;4.03;2.27;;;12.40;99.90;;;;;;5099049;28;20254;-62
2023/05/13 04:09:58;;;;;;;4.03;2.20;;;12.40;99.90;;;;;;5100090;28;20260;-62
2023/05/13 04:12:25;;;;;;;4.30;2.20;;;12.40;99.90;;;;;;5100443;28;20208;-62
2023/05/13 04:14:54;;;;;;;2.63;2.27;;;12.40;99.90;;;;;;5100035;28;20305;-62
2023/05/13 04:17:20;;;;;;;5.43;2.13;;;12.40;99.90;;;;;;5099230;28;20205;-62
2023/05/13 04:19:47;;;;;;;4.57;2.20;;;12.60;99.90;;;;;;5099561;28;20282;-62
2023/05/13 04:22:14;;;;;;;2.30;2.10;;;12.60;99.90;;;;;;5099485;28;20208;-63
2023/05/13 04:24:41;;;;;;;6.07;2.33;;;12.50;99.90;;;;;;5100396;28;20265;-62
2023/05/13 04:27:08;;;;;;;2.30;2.10;;;12.60;99.90;;;;;;5099493;28;20236;-62
2023/05/13 04:29:35;;;;;;;2.80;2.10;;;12.60;99.90;;;;;;5099714;28;20239;-62
2023/05/13 04:32:03;;;;;;;2.80;2.37;;;12.60;99.90;;;;;;5099571;28;20700;-61
2023/05/13 04:34:30;;;;;;;2.90;2.20;;;12.60;99.90;;;;;;5100314;28;20211;-63
2023/05/13 04:36:57;;;;;;;2.33;2.13;;;12.60;99.90;;;;;;5099851;28;20231;-62
2023/05/13 04:39:24;;;;;;;3.47;2.10;;;12.60;99.90;;;;;;5099618;28;20224;-62
2023/05/13 04:41:50;;;;;;;2.20;2.00;;;12.70;99.90;;;;;;5100621;28;20226;-62
2023/05/13 04:44:17;;;;;;;2.67;2.40;;;12.70;99.90;;;;;;5098907;28;20219;-62
2023/05/13 04:46:44;;;;;;;2.63;2.43;;;12.70;99.90;;;;;;5099046;28;20235;-62
2023/05/13 04:49:13;;;;;;;2.23;2.03;;;12.70;99.90;;;;;;5099255;28;20268;-62
2023/05/13 04:51:39;;;;;;;3.80;2.20;;;12.70;99.90;;;;;;5100268;28;20241;-61
2023/05/13 04:54:07;;;;;;;3.43;2.33;;;12.70;99.90;;;;;;5099307;28;20269;-62
2023/05/13 04:56:34;;;;;;;4.60;2.30;;;12.70;99.90;;;;;;5099135;28;20684;-61
2023/05/13 04:59:00;;;;;;;5.53;2.60;;;12.80;99.90;;;;;;5098756;28;20752;-62
2023/05/13 05:01:27;;;;;;;3.03;2.40;;;12.90;99.90;;;;;;5099339;28;20204;-62
2023/05/13 05:03:54;;;;;;;6.27;4.73;;;13.00;99.90;;;;;;5098562;28;20208;-61
2023/05/13 05:06:22;;;;;;;2.90;2.60;;;13.20;99.90;;;;;;5098536;28;20227;-62
2023/05/13 05:08:49;;;;;;;3.90;2.43;;;13.40;99.90;;;;;;5098954;28;20201;-62
2023/05/13 05:11:16;;;;;;;2.33;2.10;;;13.40;99.90;;;;;;5098792;28;20263;-61
2023/05/13 05:13:43;;;;;;;5.03;2.47;;;13.40;99.90;;;;;;5098835;28;20204;-62
2023/05/13 05:16:10;;;;;;;3.33;2.50;;;13.30;99.90;;;;;;5097855;28;20220;-62
2023/05/13 05:18:39;;;;;;;2.40;2.10;;;13.30;99.90;;;;;;5098092;28;20596;-62
2023/05/13 05:21:06;;;;;;;2.73;2.23;;;13.20;99.90;;;;;;5099025;28;20287;-62
2023/05/13 05:23:34;;;;;;;3.43;2.47;;;13.20;99.90;;;;;;5098512;28;20212;-62
2023/05/13 05:26:02;;;;;;;2.30;2.10;;;13.20;99.90;;;;;;5099869;28;20212;-63
2023/05/13 05:28:29;;;;;;;3.93;2.70;;;13.20;99.90;;;;;;5102126;28;20210;-63
2023/05/13 05:30:57;;;;;;;4.43;2.17;;;13.20;99.90;;;;;;5101637;28;20226;-63
2023/05/13 05:33:24;;;;;;;3.73;2.40;;;13.20;99.90;;;;;;5101804;28;20208;-63
2023/05/13 05:35:51;;;;;;;4.57;2.20;;;13.30;99.90;;;;;;5100646;28;20243;-63
2023/05/13 05:38:18;;;;;;;2.60;2.23;;;13.30;99.90;;;;;;5098249;28;20272;-60
2023/05/13 05:40:46;;;;;;;3.73;2.67;;;13.40;99.90;;;;;;5095851;28;20235;-60
2023/05/13 05:43:13;;;;;;;2.73;2.13;;;13.30;99.90;;;;;;5095473;28;20295;-60
2023/05/13 05:45:40;;;;;;;2.63;2.10;;;13.40;99.90;;;;;;5094855;28;20204;-60
2023/05/13 05:48:07;;;;;;;2.73;2.00;;;13.50;99.90;;;;;;5095198;28;20231;-60
2023/05/13 05:50:35;;;;;;;2.70;2.07;;;13.50;99.90;;;;;;5095016;28;20235;-60
2023/05/13 05:53:02;;;;;;;3.73;2.27;;;13.60;99.90;;;;;;5094829;28;20236;-60
2023/05/13 05:55:30;;;;;;;2.00;1.80;;;13.70;99.90;;;;;;5094427;28;20232;-60
2023/05/13 05:58:02;;;;;;;2.57;2.07;;;13.90;99.90;;;;;;5094946;28;20208;-61
2023/05/13 06:00:29;;;;;;;2.20;2.00;;;14.00;99.90;;;;;;5094188;28;20228;-61
2023/05/13 06:02:56;;;;;;;2.30;1.93;;;14.00;99.90;;;;;;5093404;28;20208;-60
2023/05/13 06:05:23;;;;;;;2.70;1.90;;;14.10;99.90;;;;;;5092787;28;20204;-61
2023/05/13 06:07:50;;;;;;;2.47;2.10;;;14.20;99.90;;;;;;5097237;28;20295;-60
2023/05/13 06:10:17;;;;;;;7.03;2.97;;;14.20;99.90;;;;;;5097317;28;20232;-60
2023/05/13 06:12:44;;;;;;;2.60;2.40;;;14.10;99.90;;;;;;5097574;28;20208;-60
2023/05/13 06:15:12;;;;;;;3.70;2.20;;;14.00;99.90;;;;;;5097641;28;20204;-60
2023/05/13 06:17:40;;;;;;;2.77;2.30;;;14.00;99.90;;;;;;5097064;28;20208;-60
2023/05/13 06:20:07;;;;;;;2.60;2.10;;;14.00;99.90;;;;;;5097467;28;20227;-60
2023/05/13 06:22:34;;;;;;;3.23;2.23;;;14.10;99.90;;;;;;5097239;28;20580;-61
2023/05/13 06:25:01;;;;;;;2.60;2.10;;;14.20;99.90;;;;;;5097043;28;20664;-60
2023/05/13 06:27:28;;;;;;;3.70;2.10;;;14.20;99.90;;;;;;5097037;28;20243;-60
2023/05/13 06:29:55;;;;;;;4.03;2.20;;;14.30;99.90;;;;;;5097394;28;20315;-61
2023/05/13 06:32:23;;;;;;;2.73;2.27;;;14.40;99.90;;;;;;5097339;28;20208;-61
2023/05/13 06:34:51;;;;;;;2.37;2.17;;;14.40;99.90;;;;;;5098019;28;20204;-60
2023/05/13 06:37:18;;;;;;;3.10;2.03;;;14.40;99.90;;;;;;5096642;28;20269;-61
2023/05/13 06:39:45;;;;;;;4.70;2.20;;;14.40;99.90;;;;;;5096504;28;20236;-60
2023/05/13 06:42:12;;;;;;;4.03;2.50;;;14.30;99.90;;;;;;5096439;28;20253;-61
2023/05/13 06:44:39;;;;;;;3.17;2.30;;;14.20;99.90;;;;;;5096071;28;20208;-60
2023/05/13 06:47:06;;;;;;;3.03;2.30;;;14.10;99.90;;;;;;5095795;28;20200;-60
2023/05/13 06:49:34;;;;;;;3.53;2.60;;;14.00;99.90;;;;;;5095721;28;20318;-60
2023/05/13 06:52:01;;;;;;;2.77;2.37;;;14.00;99.90;;;;;;5096118;28;20215;-61
2023/05/13 06:54:29;;;;;;;2.70;2.20;;;14.00;99.90;;;;;;5096206;28;20208;-61
2023/05/13 06:56:55;;;;;;;3.67;2.13;;;14.00;99.90;;;;;;5095978;28;20227;-61
2023/05/13 06:59:22;;;;;;;3.97;2.50;;;14.10;99.90;;;;;;5096351;28;20228;-60
2023/05/13 07:01:49;;;;;;;2.93;2.40;;;14.10;99.90;;;;;;5095895;28;20212;-60
2023/05/13 07:04:16;;;;;;;2.83;2.20;;;14.10;99.90;;;;;;5096191;28;20292;-61
2023/05/13 07:06:45;;;;;;;2.50;2.20;;;14.20;99.90;;;;;;5095129;28;20283;-60
2023/05/13 07:09:11;;;;;;;2.40;2.20;;;14.30;99.90;;;;;;5095195;28;20613;-61
2023/05/13 07:11:38;;;;;;;4.03;2.50;;;14.30;99.90;;;;;;5095314;28;20250;-60
2023/05/13 07:14:05;;;;;;;3.53;2.90;;;14.30;99.90;;;;;;5095856;28;20212;-60
2023/05/13 07:16:32;;;;;;;3.23;2.73;;;14.20;99.90;;;;;;5094970;28;20224;-60
2023/05/13 07:18:59;;;;;;;2.83;2.40;;;14.10;99.90;;;;;;5093757;28;20204;-60
2023/05/13 07:21:26;;;;;;;2.87;2.23;;;14.10;99.90;;;;;;5095335;28;20235;-60
2023/05/13 07:23:54;;;;;;;4.10;2.40;;;14.00;99.90;;;;;;5095115;28;20214;-60
2023/05/13 07:26:21;;;;;;;2.93;2.40;;;13.90;99.90;;;;;;5094950;28;20201;-61
2023/05/13 07:28:48;;;;;;;2.47;2.27;;;14.00;99.90;;;;;;5095085;28;20212;-61
2023/05/13 07:31:15;;;;;;;3.17;2.70;;;14.00;99.90;;;;;;5095042;28;20220;-60
2023/05/13 07:33:41;;;;;;;6.63;2.50;;;14.10;99.90;;;;;;5094799;28;20212;-61
2023/05/13 07:36:08;;;;;;;4.23;2.70;;;14.20;99.90;;;;;;5094839;28;20228;-60
2023/05/13 07:38:35;;;;;;;2.90;2.37;;;14.40;99.90;;;;;;5094900;28;20200;-61
2023/05/13 07:41:03;;;;;;;2.60;2.40;;;14.50;99.90;;;;;;5094745;28;20718;-61
2023/05/13 07:43:33;;;;;;;2.87;2.57;;;14.60;99.90;;;;;;5094634;28;20204;-60
2023/05/13 07:46:01;;;;;;;6.10;2.80;;;14.70;99.90;;;;;;5094686;28;20683;-60
2023/05/13 07:48:28;;;;;;;2.60;2.40;;;14.70;99.90;;;;;;5094969;28;20211;-60
2023/05/13 07:50:56;;;;;;;3.10;2.30;;;14.70;99.90;;;;;;5096174;22;20644;-66
2023/05/13 07:53:23;;;;;;;2.77;2.20;;;14.60;99.90;;;;;;5074019;28;20197;-69
2023/05/13 07:55:49;;;;;;;2.50;2.27;;;14.70;99.90;;;;;;5073500;28;20201;-66
2023/05/13 07:58:19;;;;;;;3.13;2.20;;;14.70;99.90;;;;;;5074029;28;20212;-66
2023/05/13 08:00:45;;;;;;;4.00;2.37;;;14.70;99.90;;;;;;5073925;28;20228;-66
2023/05/13 08:03:12;;;;;;;3.37;2.57;;;14.70;99.90;;;;;;5073978;28;20201;-66
2023/05/13 08:05:39;;;;;;;2.70;2.50;;;14.80;99.90;;;;;;5073895;28;20282;-66
2023/05/13 08:08:05;;;;;;;6.90;2.60;;;15.00;99.90;;;;;;5073873;28;20208;-66
2023/05/13 08:10:32;;;;;;;3.10;2.63;;;15.20;99.90;;;;;;5073686;28;20723;-67
2023/05/13 08:13:00;;;;;;;4.30;2.40;;;15.20;99.90;;;;;;5073654;28;20209;-67
2023/05/13 08:15:28;;;;;;;3.93;2.30;;;15.30;99.90;;;;;;5073480;28;20201;-67
2023/05/13 08:17:54;;;;;;;2.47;2.27;;;15.30;99.90;;;;;;5073182;28;20225;-67
2023/05/13 08:20:28;;;;;;;4.70;2.37;;;15.50;99.90;;;;;;5073321;28;20224;-67
2023/05/13 08:22:55;;;;;;;2.30;2.07;;;15.70;99.90;;;;;;5074038;28;20201;-67
2023/05/13 08:25:21;;;;;;;2.87;2.50;;;15.90;99.90;;;;;;5073449;28;20205;-67
2023/05/13 08:27:48;;;;;;;3.93;2.30;;;16.10;99.90;;;;;;5073043;28;20209;-66
2023/05/13 08:30:15;;;;;;;3.30;2.03;;;16.20;99.90;;;;;;5073203;28;20301;-68
2023/05/13 08:32:43;;;;;;;2.93;2.43;;;16.40;99.90;;;;;;5073145;28;20695;-67
2023/05/13 08:35:10;;;;;;;3.80;2.43;;;16.50;99.90;;;;;;5073254;28;20201;-67
2023/05/13 08:37:37;;;;;;;3.57;2.40;;;16.50;99.90;;;;;;5072842;28;20700;-67
2023/05/13 08:40:04;;;;;;;3.07;2.17;;;16.40;99.90;;;;;;5072825;28;20716;-66
2023/05/13 08:42:33;;;;;;;5.65;2.65;;;16.40;99.90;;;;;;5073275;28;20316;-66
2023/05/13 08:45:03;;;;;;;2.83;2.00;;;16.40;99.90;;;;;;5073102;28;20205;-65
2023/05/13 08:47:37;;;;;;;4.57;2.58;;;16.30;99.90;;;;;;5072617;28;20204;-67
2023/05/13 08:50:06;;;;;;;2.73;2.33;;;16.30;99.90;;;;;;5072790;28;20659;-65
2023/05/13 08:52:33;;;;;;;3.80;2.28;;;16.60;99.90;;;;;;5072837;28;20200;-67
2023/05/13 08:55:01;;;;;;;2.60;2.20;;;16.80;99.90;;;;;;5073077;28;20231;-65
2023/05/13 08:57:28;;;;;;;2.60;2.13;;;17.00;99.90;;;;;;5072359;28;20229;-66
2023/05/13 08:59:54;;;;;;;3.80;2.10;;;17.20;99.90;;;;;;5073184;28;20248;-66
2023/05/13 09:02:22;;;;;;;3.25;2.20;;;17.30;99.90;;;;;;5072871;28;20205;-67
2023/05/13 09:04:53;;;;;;;2.22;2.03;;;17.30;99.90;;;;;;5072371;28;20209;-66
2023/05/13 09:07:21;;;;;;;3.33;1.95;;;17.20;99.90;;;;;;5072337;28;20208;-65
2023/05/13 09:09:48;;;;;;;2.97;1.90;;;17.30;99.90;;;;;;5072985;28;20660;-65
2023/05/13 09:12:42;;;;;;;4.78;1.90;;;17.40;99.90;;;;;;5073347;28;20216;-65
2023/05/13 09:15:10;;;;;;;3.10;1.83;;;17.50;99.90;;;;;;5073405;28;20255;-66
2023/05/13 09:17:38;;;;;;;5.00;2.03;;;17.80;99.90;;;;;;5081180;28;20239;-67
2023/05/13 09:20:07;;;;;;;4.05;1.95;;;17.90;99.90;;;;;;5089462;28;20220;-67
2023/05/13 09:22:35;;;;;;;3.25;1.70;;;17.80;99.90;;;;;;5085292;28;20220;-67
2023/05/13 09:25:02;;;;;;;3.17;1.80;;;17.60;99.90;;;;;;5073022;28;20213;-65
2023/05/13 09:27:37;;;;;;;2.50;1.92;;;17.50;99.90;;;;;;5072648;28;20201;-67
2023/05/13 09:30:04;;;;;;;2.40;1.95;;;17.60;99.90;;;;;;5073582;28;20224;-67
2023/05/13 09:32:31;;;;;;;4.43;2.45;;;17.60;99.90;;;;;;5073986;28;20215;-66
2023/05/13 09:35:09;;;;;;;2.20;2.00;;;17.50;99.90;;;;;;5074395;28;20232;-66
2023/05/13 09:37:37;;;;;;;3.17;1.98;;;17.40;99.90;;;;;;5074393;28;20707;-66
2023/05/13 09:40:04;;;;;;;2.65;2.00;;;17.40;99.90;;;;;;5072659;28;20224;-66
2023/05/13 09:42:31;;;;;;;2.30;2.10;;;17.40;99.90;;;;;;5072484;28;20209;-67
2023/05/13 09:45:05;;;;;;;2.10;1.92;;;17.40;99.90;;;;;;5072896;28;20209;-67
2023/05/13 09:47:32;;;;;;;3.50;2.20;;;17.50;99.90;;;;;;5072123;28;20292;-66
2023/05/13 09:50:02;;;;;;;4.32;2.67;;;17.50;99.90;;;;;;5071932;28;20314;-66
2023/05/13 09:52:30;;;;;;;5.75;2.45;;;17.40;99.90;;;;;;5072012;28;20243;-65
2023/05/13 09:54:58;;;;;;;3.65;2.38;;;17.40;99.90;;;;;;5071915;28;20629;-67
2023/05/13 09:57:27;;;;;;;3.30;2.70;;;17.10;99.90;;;;;;5071374;28;20561;-67
2023/05/13 09:59:57;;;;;;;5.15;2.65;;;17.00;99.90;;;;;;5072774;28;20311;-66
2023/05/13 10:02:25;;;;;;;3.22;2.60;;;17.00;99.90;;;;;;5072988;28;20233;-69
2023/05/13 10:04:53;;;;;;;3.00;2.10;;;17.00;99.90;;;;;;5072649;28;20208;-67
2023/05/13 10:07:23;;;;;;;2.70;2.22;;;17.10;99.90;;;;;;5072164;28;20638;-67
2023/05/13 10:09:52;;;;;;;2.20;2.00;;;17.20;99.90;;;;;;5072442;28;20236;-68
2023/05/13 10:12:21;;;;;;;2.22;2.03;;;17.10;99.90;;;;;;5073069;28;20221;-67
2023/05/13 10:14:51;;;;;;;2.40;2.03;;;17.00;99.90;;;;;;5072161;28;20255;-67
2023/05/13 10:17:19;;;;;;;2.47;1.80;;;17.00;99.90;;;;;;5072171;28;20286;-67
2023/05/13 10:19:48;;;;;;;2.85;1.92;;;16.90;99.90;;;;;;5072456;28;20252;-67
2023/05/13 10:22:16;;;;;;;2.00;1.80;;;16.90;99.90;;;;;;5072314;28;20686;-66
2023/05/13 10:24:43;;;;;;;7.07;2.03;;;16.90;99.90;;;;;;5072349;28;20212;-66
2023/05/13 10:27:12;;;;;;;2.38;2.00;;;16.90;99.90;;;;;;5071660;28;20205;-66
2023/05/13 10:29:41;;;;;;;2.40;2.20;;;16.80;99.90;;;;;;5071689;28;20260;-65
2023/05/13 10:32:09;;;;;;;2.95;1.77;;;16.90;99.90;;;;;;5071671;28;20213;-67
2023/05/13 10:34:38;;;;;;;1.60;1.50;;;17.10;99.90;;;;;;5071732;28;20661;-67
2023/05/13 10:37:36;;;;;;;3.63;2.17;;;17.20;99.90;;;;;;5071267;28;20221;-66
2023/05/13 10:40:19;;;;;;;1.80;1.70;;;17.20;99.90;;;;;;5067706;28;20700;-66
2023/05/13 10:42:53;;;;;;;2.70;1.83;;;17.50;99.90;;;;;;5071612;28;20212;-67
2023/05/13 10:45:26;;;;;;;3.55;2.08;;;17.70;99.90;;;;;;5071795;28;20211;-67
2023/05/13 10:47:55;;;;;;;1.90;1.70;;;17.90;99.90;;;;;;5071740;28;20205;-67
2023/05/13 10:50:23;;;;;;;1.73;1.63;;;18.00;99.90;;;;;;5071669;28;20233;-68
2023/05/13 10:52:51;;;;;;;4.13;2.00;;;17.90;99.90;;;;;;5073596;28;20661;-67
2023/05/13 10:55:19;;;;;;;1.98;1.67;;;17.80;99.90;;;;;;5075156;28;20205;-68
2023/05/13 10:58:09;;;;;;;1.95;1.75;;;17.60;99.90;;;;;;5074707;28;20228;-67
2023/05/13 11:00:38;;;;;;;1.55;1.45;;;17.20;99.90;;;;;;5075058;28;20337;-67
2023/05/13 11:03:10;;;;;;;3.05;2.20;;;17.00;99.90;;;;;;5074925;28;20677;-66
2023/05/13 11:05:39;;;;;;;3.10;2.33;;;16.90;99.90;;;;;;5074741;28;20217;-66
2023/05/13 11:08:06;;;;;;;4.07;2.53;;;16.70;99.90;;;;;;5074423;28;20201;-67
2023/05/13 11:10:33;;;;;;;3.38;2.55;;;16.70;99.90;;;;;;5074832;28;20225;-67
2023/05/13 11:13:21;;;;;;;2.47;2.28;;;16.80;99.90;;;;;;5074723;28;20615;-67
2023/05/13 11:15:51;;;;;;;3.60;2.75;;;16.80;99.90;;;;;;5074639;28;20205;-67
2023/05/13 11:18:19;;;;;;;3.67;2.67;;;16.70;99.90;;;;;;5074599;28;20221;-67
2023/05/13 11:20:47;;;;;;;2.35;2.15;;;16.80;99.90;;;;;;5074640;28;20320;-66
2023/05/13 11:23:18;;;;;;;3.38;2.20;;;16.80;99.90;;;;;;5074559;28;20300;-66
2023/05/13 11:25:45;;;;;;;5.60;2.65;;;16.70;99.90;;;;;;5074862;28;20205;-67
2023/05/13 11:28:16;;;;;;;6.30;2.70;;;16.60;99.90;;;;;;5074450;28;20205;-66
2023/05/13 11:30:54;;;;;;;3.35;2.10;;;16.60;99.90;;;;;;5074523;28;20259;-68
2023/05/13 11:33:21;;;;;;;4.03;2.22;;;16.50;99.90;;;;;;5074538;28;20213;-66
2023/05/13 11:35:55;;;;;;;2.33;2.13;;;16.60;99.90;;;;;;5074105;28;20289;-65
2023/05/13 11:38:23;;;;;;;2.55;2.20;;;16.90;99.90;;;;;;5073875;28;20661;-65
2023/05/13 11:40:51;;;;;;;3.03;2.40;;;17.30;99.90;;;;;;5075560;28;20244;-65
2023/05/13 11:43:21;;;;;;;2.53;2.33;;;17.80;99.90;;;;;;5075996;28;20247;-66
2023/05/13 11:45:48;;;;;;;2.55;2.25;;;18.40;99.90;;;;;;5075136;28;20707;-66
2023/05/13 11:48:20;;;;;;;3.58;2.38;;;18.90;99.90;;;;;;5074132;28;20254;-68
2023/05/13 11:50:49;;;;;;;2.35;2.00;;;19.30;99.90;;;;;;5073750;28;20233;-68
2023/05/13 11:53:21;;;;;;;2.72;2.10;;;19.30;99.90;;;;;;5073979;28;20284;-70
2023/05/13 11:55:48;;;;;;;2.30;2.10;;;19.20;99.90;;;;;;5074388;28;20212;-68
2023/05/13 11:58:16;;;;;;;5.00;2.10;;;18.90;99.90;;;;;;5073898;28;20232;-70
2023/05/13 12:00:44;;;;;;;3.03;2.20;;;18.80;99.90;;;;;;5074500;28;20307;-69
2023/05/13 12:03:14;;;;;;;2.40;2.20;;;18.70;99.90;;;;;;5073549;28;20233;-68
2023/05/13 12:05:43;;;;;;;3.20;2.20;;;18.50;99.90;;;;;;5069874;28;20560;-67
2023/05/13 12:08:11;;;;;;;4.57;2.15;;;18.40;99.90;;;;;;5072740;28;20432;-70
2023/05/13 12:10:42;;;;;;;2.60;2.28;;;18.20;99.90;;;;;;5073297;28;20236;-68
2023/05/13 12:13:16;;;;;;;2.63;2.25;;;18.10;99.90;;;;;;5073829;28;20286;-68
2023/05/13 12:15:43;;;;;;;4.65;2.22;;;17.90;99.90;;;;;;5073018;28;20225;-67
2023/05/13 12:18:10;;;;;;;3.80;2.20;;;17.90;99.90;;;;;;5073059;28;20231;-68
2023/05/13 12:20:38;;;;;;;2.28;2.08;;;17.90;99.90;;;;;;5073098;28;20315;-68
2023/05/13 12:23:06;;;;;;;2.42;2.22;;;17.90;99.90;;;;;;5073318;28;20653;-67
2023/05/13 12:25:41;;;;;;;4.53;2.20;;;18.00;99.90;;;;;;5073462;28;20617;-68
2023/05/13 12:28:13;;;;;;;2.38;2.10;;;18.30;99.90;;;;;;5072620;28;20664;-69
2023/05/13 12:30:41;;;;;;;2.60;2.30;;;18.60;99.90;;;;;;5073339;28;20229;-68
2023/05/13 12:33:13;;;;;;;3.05;2.13;;;19.20;99.90;;;;;;5072882;28;20205;-64
2023/05/13 12:35:40;;;;;;;2.70;2.20;;;19.90;99.90;;;;;;5073016;28;20220;-64
2023/05/13 12:38:13;;;;;;;2.97;2.15;;;20.40;99.90;;;;;;5073328;28;20229;-70
2023/05/13 12:40:40;;;;;;;3.00;2.35;;;21.00;99.90;;;;;;5073317;28;20256;-70
2023/05/13 12:43:10;;;;;;;2.63;2.10;;;21.50;99.90;;;;;;5073594;28;20296;-70
2023/05/13 12:45:39;;;;;;;2.50;2.30;;;21.40;99.90;;;;;;5073345;28;20668;-70
2023/05/13 12:48:05;;;;;;;3.78;2.20;;;21.00;99.90;;;;;;5069297;28;20456;-69
2023/05/13 12:50:32;;;;;;;3.83;2.60;;;20.80;99.90;;;;;;5071185;28;20236;-70
2023/05/13 12:52:59;;;;;;;2.92;2.28;;;20.60;99.90;;;;;;5071237;28;20205;-70